Terminal Aerodrome Forecast
Issued by NWS

Home | Current Version | Previous Version | Text Only | Print | Product List | Glossary Off
Versions: 1 2 3 4 5 6 7 8 9 10 11 12 13 14 15

175
FTUS43 KLSX 190904 CCA
TAFCPS
TAF COR
KCPS 190904Z 1909/2006 34014KT P6SM SCT020 BKN035
      TEMPO 1909/1913 BKN020
     FM191600 35010G16KT P6SM SCT025
     FM192100 35009KT P6SM SKC
     FM200200 02005KT P6SM SKC=

USA.gov is the U.S. government's official web portal to all federal, state and local government web resources and services.